createdAt,value
2018-08-07T00:00:43.731Z,821.54
2018-08-07T00:01:43.940Z,821.53
2018-08-07T00:02:43.768Z,821.50
2018-08-07T00:03:43.790Z,821.51
2018-08-07T00:04:43.806Z,821.52
2018-08-07T00:05:43.823Z,821.52
2018-08-07T00:06:43.844Z,821.52
2018-08-07T00:07:43.861Z,821.52
2018-08-07T00:08:43.885Z,821.50
2018-08-07T00:09:43.901Z,821.53
2018-08-07T00:10:43.919Z,821.52
2018-08-07T00:11:43.936Z,821.54
2018-08-07T00:12:43.956Z,821.54
2018-08-07T00:13:43.981Z,821.55
2018-08-07T00:14:43.994Z,821.51
2018-08-07T00:15:44.015Z,821.55
2018-08-07T00:16:44.036Z,821.50
2018-08-07T00:17:44.050Z,821.48
2018-08-07T00:18:44.074Z,821.51
2018-08-07T00:19:44.091Z,821.49
2018-08-07T00:20:44.113Z,821.46
2018-08-07T00:21:44.126Z,821.45
2018-08-07T00:22:44.149Z,821.45
2018-08-07T00:23:44.167Z,821.46
2018-08-07T00:24:44.183Z,821.42
2018-08-07T00:25:44.205Z,821.40
2018-08-07T00:26:44.223Z,821.43
2018-08-07T00:27:44.242Z,821.40
2018-08-07T00:28:44.260Z,821.37
2018-08-07T00:29:44.280Z,821.44
2018-08-07T00:30:44.299Z,821.46
2018-08-07T00:31:44.315Z,821.44
2018-08-07T00:32:44.337Z,821.45
2018-08-07T00:33:44.353Z,821.47
2018-08-07T00:34:44.375Z,821.49
2018-08-07T00:35:44.394Z,821.44
2018-08-07T00:36:44.411Z,821.43
2018-08-07T00:37:44.516Z,821.45
2018-08-07T00:38:44.449Z,821.41
2018-08-07T00:39:44.468Z,821.42
2018-08-07T00:40:44.490Z,821.38
2018-08-07T00:41:44.504Z,821.40
2018-08-07T00:42:44.522Z,821.38
2018-08-07T00:43:44.543Z,821.34
2018-08-07T00:44:44.561Z,821.34
2018-08-07T00:45:44.579Z,821.34
2018-08-07T00:46:44.601Z,821.34
2018-08-07T00:47:44.616Z,821.31
2018-08-07T00:48:44.638Z,821.33
2018-08-07T00:49:44.655Z,821.30
2018-08-07T00:50:44.673Z,821.31
2018-08-07T00:51:44.692Z,821.30
2018-08-07T00:52:44.712Z,821.28
2018-08-07T00:53:44.730Z,821.30
2018-08-07T00:54:44.752Z,821.29
2018-08-07T00:55:44.768Z,821.28
2018-08-07T00:56:44.787Z,821.30
2018-08-07T00:57:44.807Z,821.27
2018-08-07T00:58:44.824Z,821.21
2018-08-07T00:59:44.843Z,821.26
2018-08-07T01:00:44.864Z,821.20
2018-08-07T01:01:44.883Z,821.18
2018-08-07T01:02:44.898Z,821.21
2018-08-07T01:03:44.920Z,821.17
2018-08-07T01:04:44.938Z,821.17
2018-08-07T01:05:44.958Z,821.17
2018-08-07T01:06:44.977Z,821.16
2018-08-07T01:07:44.997Z,821.11
2018-08-07T01:08:45.016Z,821.11
2018-08-07T01:09:45.031Z,821.08
2018-08-07T01:10:45.054Z,821.09
2018-08-07T01:11:45.074Z,821.11
2018-08-07T01:12:45.093Z,821.09
2018-08-07T01:13:45.110Z,821.12
2018-08-07T01:14:45.130Z,821.14
2018-08-07T01:15:45.148Z,821.16
2018-08-07T01:16:45.170Z,821.15
2018-08-07T01:17:45.185Z,821.16
2018-08-07T01:18:45.204Z,821.18
2018-08-07T01:19:45.222Z,821.16
2018-08-07T01:20:45.243Z,821.18
2018-08-07T01:21:45.260Z,821.18
2018-08-07T01:22:45.281Z,821.21
2018-08-07T01:23:45.299Z,821.18
2018-08-07T01:24:45.321Z,821.21
2018-08-07T01:25:45.337Z,821.22
2018-08-07T01:26:45.359Z,821.23
2018-08-07T01:27:45.377Z,821.27
2018-08-07T01:28:45.395Z,821.30
2018-08-07T01:29:45.414Z,821.31
2018-08-07T01:30:45.434Z,821.31
2018-08-07T01:31:45.451Z,821.27
2018-08-07T01:32:45.472Z,821.32
2018-08-07T01:33:45.490Z,821.30
2018-08-07T01:34:45.510Z,821.34
2018-08-07T01:35:45.529Z,821.33
2018-08-07T01:36:45.548Z,821.36
2018-08-07T01:37:45.566Z,821.34
2018-08-07T01:38:45.585Z,821.35
2018-08-07T01:39:45.606Z,821.37
2018-08-07T01:40:45.630Z,821.38
2018-08-07T01:41:45.643Z,821.34
2018-08-07T01:42:45.667Z,821.35
2018-08-07T01:43:45.680Z,821.31
2018-08-07T01:44:45.702Z,821.33
2018-08-07T01:45:45.721Z,821.33
2018-08-07T01:46:45.739Z,821.29
2018-08-07T01:47:45.757Z,821.31
2018-08-07T01:48:45.777Z,821.23
2018-08-07T01:49:45.798Z,821.27
2018-08-07T01:50:45.815Z,821.29
2018-08-07T01:51:45.834Z,821.29
2018-08-07T01:52:45.852Z,821.29
2018-08-07T01:53:45.870Z,821.27
2018-08-07T01:54:45.889Z,821.31
2018-08-07T01:55:45.909Z,821.32
2018-08-07T01:56:45.929Z,821.31
2018-08-07T01:57:45.946Z,821.27
2018-08-07T01:58:45.966Z,821.27
2018-08-07T01:59:45.988Z,821.30
2018-08-07T02:00:46.005Z,821.28
2018-08-07T02:01:46.023Z,821.31
2018-08-07T02:02:46.041Z,821.33
2018-08-07T02:03:46.062Z,821.29
2018-08-07T02:04:46.081Z,821.28
2018-08-07T02:05:46.100Z,821.29
2018-08-07T02:06:46.118Z,821.26
2018-08-07T02:07:46.136Z,821.28
2018-08-07T02:08:46.157Z,821.27
2018-08-07T02:09:46.176Z,821.24
2018-08-07T02:10:46.192Z,821.24
2018-08-07T02:11:46.212Z,821.20
2018-08-07T02:12:46.232Z,821.19
2018-08-07T02:13:46.250Z,821.19
2018-08-07T02:14:46.272Z,821.13
2018-08-07T02:15:46.291Z,821.11
2018-08-07T02:16:46.309Z,821.10
2018-08-07T02:17:46.328Z,821.06
2018-08-07T02:18:46.345Z,821.05
2018-08-07T02:19:46.364Z,821.04
2018-08-07T02:20:46.385Z,821.03
2018-08-07T02:21:46.403Z,821.03
2018-08-07T02:22:46.421Z,821.03
2018-08-07T02:23:46.438Z,821.00
2018-08-07T02:24:46.461Z,821.02
2018-08-07T02:25:46.477Z,821.00
2018-08-07T02:26:46.497Z,821.00
2018-08-07T02:27:46.521Z,820.97
2018-08-07T02:28:46.558Z,820.95
2018-08-07T02:29:46.551Z,820.93
2018-08-07T02:30:46.572Z,820.95
2018-08-07T02:31:46.590Z,820.96
2018-08-07T02:32:46.607Z,820.94
2018-08-07T02:33:46.634Z,820.92
2018-08-07T02:34:46.647Z,820.90
2018-08-07T02:35:46.665Z,820.91
2018-08-07T02:36:46.684Z,820.90
2018-08-07T02:37:46.705Z,820.86
2018-08-07T02:38:46.722Z,820.88
2018-08-07T02:39:46.741Z,820.90
2018-08-07T02:40:46.763Z,820.86
2018-08-07T02:41:46.777Z,820.88
2018-08-07T02:42:46.798Z,820.91
2018-08-07T02:43:46.818Z,820.87
2018-08-07T02:44:46.837Z,820.85
2018-08-07T02:45:46.855Z,820.86
2018-08-07T02:46:46.874Z,820.85
2018-08-07T02:47:46.894Z,820.80
2018-08-07T02:48:46.915Z,820.82
2018-08-07T02:49:46.932Z,820.78
2018-08-07T02:50:46.949Z,820.79
2018-08-07T02:51:46.969Z,820.80
2018-08-07T02:52:46.988Z,820.83
2018-08-07T02:53:47.007Z,820.83
2018-08-07T02:54:47.024Z,820.79
2018-08-07T02:55:47.044Z,820.77
2018-08-07T02:56:47.065Z,820.80
2018-08-07T02:57:47.082Z,820.78
2018-08-07T02:58:47.100Z,820.77
2018-08-07T02:59:47.121Z,820.78
2018-08-07T03:00:47.140Z,820.80
2018-08-07T03:01:47.159Z,820.79
2018-08-07T03:02:47.185Z,820.77
2018-08-07T03:03:47.196Z,820.75
2018-08-07T03:04:47.216Z,820.76
2018-08-07T03:05:47.233Z,820.77
2018-08-07T03:06:47.254Z,820.73
2018-08-07T03:07:47.277Z,820.73
2018-08-07T03:08:47.296Z,820.72
2018-08-07T03:09:47.308Z,820.76
2018-08-07T03:10:47.327Z,820.74
2018-08-07T03:11:47.349Z,820.71
2018-08-07T03:12:47.377Z,820.73
2018-08-07T03:13:47.384Z,820.68
2018-08-07T03:14:47.406Z,820.67
2018-08-07T03:15:47.434Z,820.64
2018-08-07T03:16:47.443Z,820.63
2018-08-07T03:17:47.458Z,820.59
2018-08-07T03:18:47.481Z,820.59
2018-08-07T03:19:47.495Z,820.61
2018-08-07T03:20:47.518Z,820.61
2018-08-07T03:21:47.534Z,820.59
2018-08-07T03:22:47.552Z,820.57
2018-08-07T03:23:47.571Z,820.60
2018-08-07T03:24:47.590Z,820.60
2018-08-07T03:25:47.608Z,820.59
2018-08-07T03:26:47.627Z,820.61
2018-08-07T03:27:47.648Z,820.57
2018-08-07T03:28:47.664Z,820.59
2018-08-07T03:29:47.682Z,820.61
2018-08-07T03:30:47.709Z,820.62
2018-08-07T03:31:47.721Z,820.59
2018-08-07T03:32:47.738Z,820.59
2018-08-07T03:33:47.756Z,820.57
2018-08-07T03:34:47.774Z,820.58
2018-08-07T03:35:47.795Z,820.61
2018-08-07T03:36:47.813Z,820.61
2018-08-07T03:37:47.830Z,820.62
2018-08-07T03:38:47.850Z,820.61
2018-08-07T03:39:47.867Z,820.64
2018-08-07T03:40:47.889Z,820.63
2018-08-07T03:41:47.906Z,820.63
2018-08-07T03:42:47.928Z,820.68
2018-08-07T03:43:47.943Z,820.68
2018-08-07T03:44:47.961Z,820.67
2018-08-07T03:45:47.979Z,820.67
2018-08-07T03:46:47.998Z,820.67
2018-08-07T03:47:48.024Z,820.64
2018-08-07T03:48:48.036Z,820.63
2018-08-07T03:49:48.052Z,820.63
2018-08-07T03:50:48.074Z,820.61
2018-08-07T03:51:48.091Z,820.62
2018-08-07T03:52:48.113Z,820.59
2018-08-07T03:53:48.127Z,820.64
2018-08-07T03:54:48.148Z,820.61
2018-08-07T03:55:48.167Z,820.64
2018-08-07T03:56:48.184Z,820.64
2018-08-07T03:57:48.201Z,820.64
2018-08-07T03:58:48.223Z,820.63
2018-08-07T03:59:48.243Z,820.61
2018-08-07T04:00:48.261Z,820.58
2018-08-07T04:01:48.277Z,820.61
2018-08-07T04:02:48.298Z,820.63
2018-08-07T04:03:48.316Z,820.64
2018-08-07T04:04:48.345Z,820.66
2018-08-07T04:05:48.352Z,820.65
2018-08-07T04:06:48.371Z,820.67
2018-08-07T04:07:48.387Z,820.64
2018-08-07T04:08:48.410Z,820.59
2018-08-07T04:09:48.425Z,820.57
2018-08-07T04:10:48.446Z,820.63
2018-08-07T04:11:48.463Z,820.60
2018-08-07T04:12:48.482Z,820.61
2018-08-07T04:13:48.500Z,820.62
2018-08-07T04:14:48.519Z,820.65
2018-08-07T04:15:48.538Z,820.63
2018-08-07T04:16:48.558Z,820.62
2018-08-07T04:17:48.575Z,820.65
2018-08-07T04:18:48.593Z,820.64
2018-08-07T04:19:48.612Z,820.66
2018-08-07T04:20:48.632Z,820.62
2018-08-07T04:21:48.649Z,820.65
2018-08-07T04:22:48.667Z,820.62
2018-08-07T04:23:48.688Z,820.64
2018-08-07T04:24:48.706Z,820.64
2018-08-07T04:25:48.722Z,820.62
2018-08-07T04:26:48.743Z,820.64
2018-08-07T04:27:48.760Z,820.62
2018-08-07T04:28:48.781Z,820.64
2018-08-07T04:29:48.799Z,820.63
2018-08-07T04:30:48.818Z,820.61
2018-08-07T04:31:48.838Z,820.60
2018-08-07T04:32:48.854Z,820.58
2018-08-07T04:33:48.873Z,820.62
2018-08-07T04:34:48.893Z,820.63
2018-08-07T04:35:48.913Z,820.60
2018-08-07T04:36:48.930Z,820.62
2018-08-07T04:37:48.949Z,820.63
2018-08-07T04:38:48.968Z,820.69
2018-08-07T04:39:48.985Z,820.66
2018-08-07T04:40:49.006Z,820.69
2018-08-07T04:41:49.028Z,820.70
2018-08-07T04:42:49.040Z,820.70
2018-08-07T04:43:49.060Z,820.75
2018-08-07T04:44:49.078Z,820.72
2018-08-07T04:45:49.145Z,820.74
2018-08-07T04:46:49.119Z,820.73
2018-08-07T04:47:49.138Z,820.71
2018-08-07T04:48:49.156Z,820.75
2018-08-07T04:49:49.174Z,820.72
2018-08-07T04:50:49.191Z,820.75
2018-08-07T04:51:49.246Z,820.75
2018-08-07T04:52:49.233Z,820.75
2018-08-07T04:53:49.246Z,820.74
2018-08-07T04:54:49.267Z,820.73
2018-08-07T04:55:49.286Z,820.73
2018-08-07T04:56:49.306Z,820.76
2018-08-07T04:57:49.323Z,820.74
2018-08-07T04:58:49.342Z,820.79
2018-08-07T04:59:49.362Z,820.75
2018-08-07T05:00:49.383Z,820.75
2018-08-07T05:01:49.398Z,820.72
2018-08-07T05:02:49.419Z,820.76
2018-08-07T05:03:49.437Z,820.75
2018-08-07T05:04:49.456Z,820.74
2018-08-07T05:05:49.475Z,820.73
2018-08-07T05:06:49.494Z,820.72
2018-08-07T05:07:49.514Z,820.74
2018-08-07T05:08:49.529Z,820.72
2018-08-07T05:09:49.550Z,820.72
2018-08-07T05:10:49.679Z,820.74
2018-08-07T05:11:49.588Z,820.74
2018-08-07T05:12:49.608Z,820.69
2018-08-07T05:13:49.626Z,820.72
2018-08-07T05:14:49.646Z,820.72
2018-08-07T05:15:49.663Z,820.71
2018-08-07T05:16:49.685Z,820.71
2018-08-07T05:17:49.702Z,820.67
2018-08-07T05:18:49.720Z,820.70
2018-08-07T05:19:49.739Z,820.62
2018-08-07T05:20:49.760Z,820.62
2018-08-07T05:21:49.779Z,820.65
2018-08-07T05:22:49.796Z,820.61
2018-08-07T05:23:49.815Z,820.64
2018-08-07T05:24:49.833Z,820.66
2018-08-07T05:25:49.857Z,820.65
2018-08-07T05:26:49.874Z,820.68
2018-08-07T05:27:49.892Z,820.66
2018-08-07T05:28:49.923Z,820.66
2018-08-07T05:29:49.938Z,820.70
2018-08-07T05:30:49.949Z,820.67
2018-08-07T05:31:49.967Z,820.73
2018-08-07T05:32:49.987Z,820.72
2018-08-07T05:33:50.006Z,820.67
2018-08-07T05:34:50.025Z,820.67
2018-08-07T05:35:50.053Z,820.65
2018-08-07T05:36:50.065Z,820.69
2018-08-07T05:37:50.082Z,820.63
2018-08-07T05:38:50.103Z,820.68
2018-08-07T05:39:50.122Z,820.64
2018-08-07T05:40:50.178Z,820.65
2018-08-07T05:41:50.159Z,820.66
2018-08-07T05:42:50.249Z,820.66
2018-08-07T05:43:50.197Z,820.68
2018-08-07T05:44:50.217Z,820.63
2018-08-07T05:45:50.239Z,820.61
2018-08-07T05:46:50.257Z,820.62
2018-08-07T05:47:50.275Z,820.60
2018-08-07T05:48:50.296Z,820.59
2018-08-07T05:49:50.313Z,820.63
2018-08-07T05:50:50.780Z,820.67
2018-08-07T05:51:50.352Z,820.63
2018-08-07T05:52:50.371Z,820.63
2018-08-07T05:53:50.391Z,820.66
2018-08-07T05:54:50.410Z,820.66
2018-08-07T05:55:50.431Z,820.68
2018-08-07T05:56:50.449Z,820.69
2018-08-07T05:57:50.499Z,820.68
2018-08-07T05:58:50.573Z,820.66
2018-08-07T05:59:50.509Z,820.68
2018-08-07T06:00:50.526Z,820.71
2018-08-07T06:01:50.544Z,820.69
2018-08-07T06:02:50.564Z,820.70
2018-08-07T06:03:50.586Z,820.72
2018-08-07T06:04:50.603Z,820.71
2018-08-07T06:05:50.621Z,820.71
2018-08-07T06:06:50.642Z,820.75
2018-08-07T06:07:50.661Z,820.77
2018-08-07T06:08:50.683Z,820.77
2018-08-07T06:09:50.701Z,820.77
2018-08-07T06:10:50.790Z,820.78
2018-08-07T06:11:50.739Z,820.77
2018-08-07T06:12:50.761Z,820.81
2018-08-07T06:13:50.778Z,820.83
2018-08-07T06:14:50.798Z,820.85
2018-08-07T06:15:50.820Z,820.86
2018-08-07T06:16:50.836Z,820.88
2018-08-07T06:17:50.855Z,820.89
2018-08-07T06:18:50.875Z,820.87
2018-08-07T06:19:50.895Z,820.87
2018-08-07T06:20:50.917Z,820.89
2018-08-07T06:21:50.934Z,820.90
2018-08-07T06:22:50.954Z,820.92
2018-08-07T06:23:50.974Z,820.86
2018-08-07T06:24:50.993Z,820.88
2018-08-07T06:25:51.015Z,820.90
2018-08-07T06:26:51.032Z,820.88
2018-08-07T06:27:51.051Z,820.92
2018-08-07T06:28:51.078Z,820.91
2018-08-07T06:29:51.090Z,820.92
2018-08-07T06:30:51.113Z,820.95
2018-08-07T06:31:51.131Z,820.92
2018-08-07T06:32:51.152Z,820.93
2018-08-07T06:33:51.177Z,820.97
2018-08-07T06:34:51.189Z,820.93
2018-08-07T06:35:51.211Z,821.00
2018-08-07T06:36:51.229Z,820.99
2018-08-07T06:37:51.264Z,820.99
2018-08-07T06:38:51.267Z,820.94
2018-08-07T06:39:51.287Z,820.96
2018-08-07T06:40:51.308Z,820.97
2018-08-07T06:41:51.328Z,820.97
2018-08-07T06:42:51.426Z,820.94
2018-08-07T06:43:51.366Z,820.98
2018-08-07T06:44:51.426Z,821.00
2018-08-07T06:45:51.407Z,820.97
2018-08-07T06:46:51.427Z,820.97
2018-08-07T06:47:51.445Z,821.02
2018-08-07T06:48:51.475Z,820.99
2018-08-07T06:49:51.486Z,821.01
2018-08-07T06:50:51.505Z,820.98
2018-08-07T06:51:51.526Z,821.02
2018-08-07T06:52:51.551Z,821.00
2018-08-07T06:53:51.566Z,821.01
2018-08-07T06:54:51.586Z,820.99
2018-08-07T06:55:51.612Z,820.98
2018-08-07T06:56:51.625Z,821.00
2018-08-07T06:57:51.645Z,820.98
2018-08-07T06:58:51.701Z,821.00
2018-08-07T06:59:51.689Z,820.97
2018-08-07T07:00:51.706Z,820.98
2018-08-07T07:01:51.724Z,820.98
2018-08-07T07:02:51.744Z,820.98
2018-08-07T07:03:51.765Z,820.97
2018-08-07T07:04:51.786Z,820.97
2018-08-07T07:05:51.806Z,820.99
2018-08-07T07:06:51.827Z,820.98
2018-08-07T07:07:51.845Z,820.98
2018-08-07T07:08:51.867Z,820.99
2018-08-07T07:09:51.940Z,820.95
2018-08-07T07:10:51.905Z,820.99
2018-08-07T07:11:51.926Z,820.95
2018-08-07T07:12:51.951Z,820.94
2018-08-07T07:13:51.965Z,820.96
2018-08-07T07:14:52.093Z,820.94
2018-08-07T07:15:52.007Z,820.92
2018-08-07T07:16:52.027Z,820.95
2018-08-07T07:17:52.044Z,820.95
2018-08-07T07:18:52.065Z,820.89
2018-08-07T07:19:52.108Z,820.89
2018-08-07T07:20:52.168Z,820.89
2018-08-07T07:21:52.128Z,820.91
2018-08-07T07:22:52.144Z,820.88
2018-08-07T07:23:52.167Z,820.84
2018-08-07T07:24:52.257Z,820.88
2018-08-07T07:25:52.204Z,820.87
2018-08-07T07:26:52.227Z,820.87
2018-08-07T07:27:52.247Z,820.89
2018-08-07T07:28:52.269Z,820.90
2018-08-07T07:29:52.284Z,820.87
2018-08-07T07:30:52.307Z,820.93
2018-08-07T07:31:52.327Z,820.93
2018-08-07T07:32:52.349Z,820.92
2018-08-07T07:33:52.368Z,820.91
2018-08-07T07:34:52.388Z,820.90
2018-08-07T07:35:52.412Z,820.93
2018-08-07T07:36:52.430Z,820.97
2018-08-07T07:37:52.449Z,820.93
2018-08-07T07:38:52.484Z,820.92
2018-08-07T07:39:52.490Z,820.97
2018-08-07T07:40:52.512Z,820.95
2018-08-07T07:41:52.530Z,820.94
2018-08-07T07:42:52.548Z,820.98
2018-08-07T07:43:52.571Z,820.93
2018-08-07T07:44:52.615Z,820.94
2018-08-07T07:45:52.610Z,820.96
2018-08-07T07:46:52.717Z,820.99
2018-08-07T07:47:52.651Z,821.04
2018-08-07T07:48:52.672Z,820.97
2018-08-07T07:49:52.699Z,820.97
2018-08-07T07:50:52.724Z,820.97
2018-08-07T07:51:52.733Z,820.94
2018-08-07T07:52:52.753Z,820.98
2018-08-07T07:53:52.801Z,820.97
2018-08-07T07:54:52.794Z,820.95
2018-08-07T07:55:52.815Z,820.95
2018-08-07T07:56:52.836Z,820.95
2018-08-07T07:57:52.855Z,820.96
2018-08-07T07:58:52.876Z,820.93
2018-08-07T07:59:52.896Z,820.90
2018-08-07T08:00:52.918Z,820.95
2018-08-07T08:01:52.936Z,820.89
2018-08-07T08:02:52.963Z,820.94
2018-08-07T08:03:52.981Z,820.93
2018-08-07T08:04:53.009Z,820.94
2018-08-07T08:05:53.066Z,820.99
2018-08-07T08:06:53.044Z,821.02
2018-08-07T08:07:53.060Z,821.01
2018-08-07T08:08:53.088Z,821.00
2018-08-07T08:09:53.104Z,821.00
2018-08-07T08:10:53.127Z,820.99
2018-08-07T08:11:53.148Z,821.00
2018-08-07T08:12:53.166Z,821.00
2018-08-07T08:13:53.188Z,821.00
2018-08-07T08:14:53.209Z,821.00
2018-08-07T08:15:53.228Z,821.03
2018-08-07T08:16:53.250Z,821.03
2018-08-07T08:17:53.267Z,821.01
2018-08-07T08:18:53.293Z,821.06
2018-08-07T08:19:53.311Z,821.06
2018-08-07T08:20:53.333Z,821.06
2018-08-07T08:21:53.354Z,821.08
2018-08-07T08:22:53.373Z,821.08
2018-08-07T08:23:53.395Z,821.08
2018-08-07T08:24:53.418Z,821.12
2018-08-07T08:25:53.436Z,821.10
2018-08-07T08:26:53.458Z,821.07
2018-08-07T08:27:53.480Z,821.06
2018-08-07T08:28:53.574Z,821.10
2018-08-07T08:29:53.661Z,821.08
2018-08-07T08:30:53.544Z,821.11
2018-08-07T08:31:53.562Z,821.07
2018-08-07T08:32:53.586Z,821.13
2018-08-07T08:33:53.606Z,821.11
2018-08-07T08:34:53.651Z,821.12
2018-08-07T08:35:53.656Z,821.13
2018-08-07T08:36:53.670Z,821.13
2018-08-07T08:37:53.695Z,821.14
2018-08-07T08:38:53.712Z,821.19
2018-08-07T08:39:53.741Z,821.14
2018-08-07T08:40:53.846Z,821.15
2018-08-07T08:41:53.774Z,821.16
2018-08-07T08:42:53.798Z,821.19
2018-08-07T08:43:53.821Z,821.18
2018-08-07T08:44:53.840Z,821.13
2018-08-07T08:45:53.862Z,821.16
2018-08-07T08:46:53.882Z,821.17
2018-08-07T08:47:53.966Z,821.15
2018-08-07T08:48:53.925Z,821.16
2018-08-07T08:49:53.945Z,821.18
2018-08-07T08:50:53.967Z,821.17
2018-08-07T08:51:53.992Z,821.16
2018-08-07T08:52:54.012Z,821.16
2018-08-07T08:53:54.047Z,821.15
2018-08-07T08:54:54.055Z,821.14
2018-08-07T08:55:54.076Z,821.14
2018-08-07T08:56:54.098Z,821.14
2018-08-07T08:57:54.123Z,821.15
2018-08-07T08:58:54.140Z,821.17
2018-08-07T08:59:54.172Z,821.14
2018-08-07T09:00:54.183Z,821.14
2018-08-07T09:01:54.206Z,821.12
2018-08-07T09:02:54.229Z,821.13
2018-08-07T09:03:54.248Z,821.11
2018-08-07T09:04:54.290Z,821.14
2018-08-07T09:05:54.292Z,821.12
2018-08-07T09:06:54.314Z,821.14
2018-08-07T09:07:54.335Z,821.14
2018-08-07T09:08:54.360Z,821.12
2018-08-07T09:09:54.377Z,821.12
2018-08-07T09:10:54.400Z,821.13
2018-08-07T09:11:54.422Z,821.11
2018-08-07T09:12:54.444Z,821.13
2018-08-07T09:13:54.466Z,821.11
2018-08-07T09:14:54.489Z,821.07
2018-08-07T09:15:54.509Z,821.08
2018-08-07T09:16:54.536Z,821.07
2018-08-07T09:17:54.554Z,821.13
2018-08-07T09:18:54.577Z,821.11
2018-08-07T09:19:54.611Z,821.14
2018-08-07T09:20:54.626Z,821.10
2018-08-07T09:21:54.640Z,821.12
2018-08-07T09:22:54.661Z,821.07
2018-08-07T09:23:54.683Z,821.12
2018-08-07T09:24:54.706Z,821.10
2018-08-07T09:25:54.904Z,821.06
2018-08-07T09:26:54.756Z,821.08
2018-08-07T09:27:54.770Z,821.08
2018-08-07T09:28:54.794Z,821.09
2018-08-07T09:29:54.816Z,821.04
2018-08-07T09:30:54.837Z,821.07
2018-08-07T09:31:54.895Z,821.06
2018-08-07T09:32:54.909Z,821.04
2018-08-07T09:33:54.903Z,821.10
2018-08-07T09:34:54.925Z,821.10
2018-08-07T09:35:54.948Z,821.10
2018-08-07T09:36:54.970Z,821.09
2018-08-07T09:37:54.991Z,821.07
2018-08-07T09:38:55.012Z,821.11
2018-08-07T09:39:55.036Z,821.12
2018-08-07T09:40:55.058Z,821.11
2018-08-07T09:41:55.079Z,821.09
2018-08-07T09:42:55.104Z,821.10
2018-08-07T09:43:55.131Z,821.11
2018-08-07T09:44:55.151Z,821.13
2018-08-07T09:45:55.173Z,821.12
2018-08-07T09:46:55.194Z,821.11
2018-08-07T09:47:55.220Z,821.07
2018-08-07T09:48:55.238Z,821.09
2018-08-07T09:49:55.262Z,821.06
2018-08-07T09:50:55.284Z,821.09
2018-08-07T09:51:55.304Z,821.07
2018-08-07T09:52:55.327Z,821.04
2018-08-07T09:53:55.349Z,821.06
2018-08-07T09:54:55.372Z,821.08
2018-08-07T09:55:55.395Z,821.08
2018-08-07T09:56:55.419Z,821.03
2018-08-07T09:57:55.442Z,821.01
2018-08-07T09:58:55.463Z,821.04
2018-08-07T09:59:55.485Z,821.09
2018-08-07T10:00:55.509Z,821.08
2018-08-07T10:01:55.530Z,821.06
2018-08-07T10:02:55.553Z,821.07
2018-08-07T10:03:55.577Z,821.06
2018-08-07T10:04:55.599Z,821.04
2018-08-07T10:05:55.625Z,821.05
2018-08-07T10:06:55.646Z,821.04
2018-08-07T10:07:55.667Z,821.01
2018-08-07T10:08:55.691Z,820.99
2018-08-07T10:09:55.713Z,821.02
2018-08-07T10:10:55.737Z,821.04
2018-08-07T10:11:55.764Z,821.05
2018-08-07T10:12:55.782Z,821.06
2018-08-07T10:13:55.805Z,821.05
2018-08-07T10:14:55.829Z,821.04
2018-08-07T10:15:55.852Z,821.03
2018-08-07T10:16:55.876Z,821.02
2018-08-07T10:17:56.015Z,821.00
2018-08-07T10:18:55.921Z,820.96
2018-08-07T10:19:55.944Z,820.89
2018-08-07T10:20:55.968Z,820.92
2018-08-07T10:21:55.992Z,820.95
2018-08-07T10:22:56.016Z,820.94
2018-08-07T10:23:56.040Z,820.98
2018-08-07T10:24:56.063Z,820.99
2018-08-07T10:25:56.086Z,820.96
2018-08-07T10:26:56.109Z,820.95
2018-08-07T10:27:56.135Z,820.93
2018-08-07T10:28:56.158Z,820.92
2018-08-07T10:29:56.181Z,820.90
2018-08-07T10:30:56.207Z,820.88
2018-08-07T10:31:56.229Z,820.88
2018-08-07T10:32:56.250Z,820.85
2018-08-07T10:33:56.279Z,820.83
2018-08-07T10:34:56.315Z,820.84
2018-08-07T10:35:56.322Z,820.86
2018-08-07T10:36:56.350Z,820.86
2018-08-07T10:37:56.370Z,820.81
2018-08-07T10:38:56.398Z,820.82
2018-08-07T10:39:56.418Z,820.82
2018-08-07T10:40:56.528Z,820.78
2018-08-07T10:41:56.467Z,820.72
2018-08-07T10:42:56.507Z,820.73
2018-08-07T10:43:56.645Z,820.73
2018-08-07T10:44:56.540Z,820.73
2018-08-07T10:45:56.558Z,820.71
2018-08-07T10:46:56.584Z,820.72
2018-08-07T10:47:56.613Z,820.69
2018-08-07T10:48:56.641Z,820.70
2018-08-07T10:49:56.658Z,820.73
2018-08-07T10:50:56.735Z,820.73
2018-08-07T10:51:56.708Z,820.73
2018-08-07T10:52:56.727Z,820.72
2018-08-07T10:53:56.751Z,820.75
2018-08-07T10:54:56.775Z,820.72
2018-08-07T10:55:56.801Z,820.76
2018-08-07T10:56:56.828Z,820.72
2018-08-07T10:57:56.847Z,820.73
2018-08-07T10:58:56.872Z,820.74
2018-08-07T10:59:56.896Z,820.73
2018-08-07T11:00:56.923Z,820.74
2018-08-07T11:01:56.948Z,820.74
2018-08-07T11:02:56.971Z,820.69
2018-08-07T11:03:56.996Z,820.77
2018-08-07T11:04:57.020Z,820.69
2018-08-07T11:05:57.048Z,820.68
2018-08-07T11:06:57.070Z,820.70
2018-08-07T11:07:57.097Z,820.71
2018-08-07T11:08:57.123Z,820.72
2018-08-07T11:09:57.146Z,820.73
2018-08-07T11:10:57.171Z,820.70
2018-08-07T11:11:57.193Z,820.71
2018-08-07T11:12:57.221Z,820.74
2018-08-07T11:13:57.244Z,820.71
2018-08-07T11:14:57.272Z,820.70
2018-08-07T11:15:57.295Z,820.66
2018-08-07T11:16:57.318Z,820.67
2018-08-07T11:17:57.345Z,820.67
2018-08-07T11:18:57.365Z,820.68
2018-08-07T11:19:57.394Z,820.68
2018-08-07T11:20:57.417Z,820.62
2018-08-07T11:21:57.440Z,820.68
2018-08-07T11:22:57.465Z,820.66
2018-08-07T11:23:57.489Z,820.63
2018-08-07T11:24:57.516Z,820.62
2018-08-07T11:25:57.539Z,820.63
2018-08-07T11:26:57.570Z,820.64
2018-08-07T11:27:57.589Z,820.65
2018-08-07T11:28:57.614Z,820.61
2018-08-07T11:29:57.693Z,820.64
2018-08-07T11:30:57.665Z,820.64
2018-08-07T11:31:57.690Z,820.62
2018-08-07T11:32:57.713Z,820.62
2018-08-07T11:33:57.746Z,820.66
2018-08-07T11:34:57.759Z,820.63
2018-08-07T11:35:57.883Z,820.63
2018-08-07T11:36:57.809Z,820.62
2018-08-07T11:37:57.840Z,820.60
2018-08-07T11:38:57.858Z,820.61
2018-08-07T11:39:57.886Z,820.65
2018-08-07T11:40:57.909Z,820.63
2018-08-07T11:41:57.934Z,820.63
2018-08-07T11:42:57.957Z,820.60
2018-08-07T11:43:57.981Z,820.59
2018-08-07T11:44:58.006Z,820.59
2018-08-07T11:45:58.032Z,820.61
2018-08-07T11:46:58.069Z,820.61
2018-08-07T11:47:58.105Z,820.58
2018-08-07T11:48:58.105Z,820.59
2018-08-07T11:49:58.139Z,820.58
2018-08-07T11:50:58.152Z,820.59
2018-08-07T11:51:58.179Z,820.55
2018-08-07T11:52:58.206Z,820.58
2018-08-07T11:53:58.226Z,820.61
2018-08-07T11:54:58.252Z,820.59
2018-08-07T11:55:58.277Z,820.63
2018-08-07T11:56:58.301Z,820.59
2018-08-07T11:57:58.323Z,820.58
2018-08-07T11:58:58.349Z,820.60
2018-08-07T11:59:58.374Z,820.57
2018-08-07T12:00:58.398Z,820.57
2018-08-07T12:01:58.451Z,820.58
2018-08-07T12:02:58.454Z,820.60
2018-08-07T12:03:58.472Z,820.56
2018-08-07T12:04:58.499Z,820.53
2018-08-07T12:05:58.521Z,820.52
2018-08-07T12:06:58.547Z,820.52
2018-08-07T12:07:58.595Z,820.54
2018-08-07T12:08:58.597Z,820.52
2018-08-07T12:09:58.625Z,820.51
2018-08-07T12:10:58.649Z,820.50
2018-08-07T12:11:58.673Z,820.44
2018-08-07T12:12:58.705Z,820.47
2018-08-07T12:13:58.723Z,820.44
2018-08-07T12:14:58.752Z,820.43
2018-08-07T12:15:58.774Z,820.44
2018-08-07T12:16:58.801Z,820.44
2018-08-07T12:17:58.824Z,820.45
2018-08-07T12:18:58.852Z,820.42
2018-08-07T12:19:58.876Z,820.39
2018-08-07T12:20:58.903Z,820.37
2018-08-07T12:21:58.946Z,820.36
2018-08-07T12:22:58.953Z,820.42
2018-08-07T12:23:58.979Z,820.39
2018-08-07T12:24:59.007Z,820.35
2018-08-07T12:25:59.031Z,820.35
2018-08-07T12:26:59.057Z,820.39
2018-08-07T12:27:59.080Z,820.32
2018-08-07T12:28:59.108Z,820.30